createdAt,value
2022-10-31T00:01:18.736Z,99202.44
2022-10-31T00:04:30.530Z,99202.56
2022-10-31T00:07:42.321Z,99196.53
2022-10-31T00:10:54.311Z,99192.23
2022-10-31T00:14:07.240Z,99203.47
2022-10-31T00:17:18.858Z,99200.11
2022-10-31T00:20:30.715Z,99201.20
2022-10-31T00:23:43.450Z,99197.00
2022-10-31T00:26:55.081Z,99206.00
2022-10-31T00:30:07.253Z,99208.13
2022-10-31T00:33:18.873Z,99203.23
2022-10-31T00:36:30.525Z,99203.23
2022-10-31T00:39:42.141Z,99207.48
2022-10-31T00:42:54.017Z,99209.19
2022-10-31T00:46:05.706Z,99205.56
2022-10-31T00:49:19.659Z,99212.17
2022-10-31T00:52:31.841Z,99222.44
2022-10-31T00:55:43.655Z,99212.36
2022-10-31T00:58:55.442Z,99220.50
2022-10-31T01:02:07.355Z,99219.09
2022-10-31T01:05:19.884Z,99226.13
2022-10-31T01:08:32.113Z,99224.43
2022-10-31T01:11:43.753Z,99215.31
2022-10-31T01:14:55.665Z,99212.38
2022-10-31T01:18:07.377Z,99221.06
2022-10-31T01:21:22.617Z,99204.27
2022-10-31T01:24:35.127Z,99207.33
2022-10-31T01:27:47.419Z,99208.02
2022-10-31T01:30:59.402Z,99208.17
2022-10-31T01:34:12.087Z,99201.16
2022-10-31T01:37:23.701Z,99195.70
2022-10-31T01:40:38.753Z,99188.53
2022-10-31T01:43:59.874Z,99198.22
2022-10-31T01:47:16.658Z,99191.34
2022-10-31T01:50:39.166Z,99193.31
2022-10-31T01:53:52.556Z,99186.44
2022-10-31T01:57:05.408Z,99191.77
2022-10-31T02:00:20.815Z,99185.47
2022-10-31T02:03:35.201Z,99181.54
2022-10-31T02:06:51.989Z,99186.56
2022-10-31T02:10:06.025Z,99191.89
2022-10-31T02:13:19.717Z,99193.04
2022-10-31T02:16:33.608Z,99197.52
2022-10-31T02:19:52.424Z,99202.84
2022-10-31T02:23:50.417Z,99196.13
2022-10-31T02:27:38.254Z,99204.27
2022-10-31T02:31:02.626Z,99200.91
2022-10-31T02:34:21.427Z,99202.30
2022-10-31T02:37:40.192Z,99208.47
2022-10-31T02:41:01.760Z,99213.95
2022-10-31T02:44:27.983Z,99206.26
2022-10-31T02:47:43.717Z,99211.70
2022-10-31T02:51:00.575Z,99209.04
2022-10-31T02:54:22.793Z,99216.21
2022-10-31T02:57:39.840Z,99214.37
2022-10-31T03:01:06.032Z,99214.52
2022-10-31T03:04:49.911Z,99217.73
2022-10-31T03:08:09.846Z,99219.42
2022-10-31T03:11:23.725Z,99223.20
2022-10-31T03:14:44.126Z,99218.88
2022-10-31T03:18:03.992Z,99222.66
2022-10-31T03:21:21.973Z,99227.13
2022-10-31T03:24:39.503Z,99213.13
2022-10-31T03:27:53.070Z,99214.94
2022-10-31T03:31:07.358Z,99221.11
2022-10-31T03:34:22.661Z,99227.98
2022-10-31T03:37:38.141Z,99228.13
2022-10-31T03:40:53.634Z,99218.30
2022-10-31T03:44:10.224Z,99228.13
2022-10-31T03:47:23.992Z,99228.13
2022-10-31T03:50:41.929Z,99234.27
2022-10-31T03:53:59.887Z,99234.27
2022-10-31T03:57:19.398Z,99233.16
2022-10-31T04:00:31.638Z,99236.81
2022-10-31T04:03:44.966Z,99237.78
2022-10-31T04:06:59.185Z,99237.08
2022-10-31T04:10:16.748Z,99237.08
2022-10-31T04:13:33.356Z,99232.05
2022-10-31T04:16:51.329Z,99230.66
2022-10-31T04:20:07.817Z,99235.28
2022-10-31T04:23:26.188Z,99232.03
2022-10-31T04:26:38.491Z,99239.62
2022-10-31T04:29:51.040Z,99239.06
2022-10-31T04:33:03.460Z,99235.85
2022-10-31T04:36:16.239Z,99241.44
2022-10-31T04:39:28.109Z,99237.23
2022-10-31T04:42:57.003Z,99235.41
2022-10-31T04:46:09.282Z,99243.55
2022-10-31T04:49:21.415Z,99236.52
2022-10-31T04:52:33.402Z,99238.48
2022-10-31T04:55:45.553Z,99251.79
2022-10-31T04:59:05.531Z,99250.27
2022-10-31T05:02:19.368Z,99240.59
2022-10-31T05:05:35.665Z,99251.64
2022-10-31T05:08:48.770Z,99254.45
2022-10-31T05:12:00.810Z,99247.46
2022-10-31T05:15:33.249Z,99247.72
2022-10-31T05:18:50.447Z,99251.23
2022-10-31T05:22:20.784Z,99256.55
2022-10-31T05:25:34.212Z,99255.70
2022-10-31T05:28:47.848Z,99265.50
2022-10-31T05:31:59.776Z,99267.34
2022-10-31T05:35:28.153Z,99269.01
2022-10-31T05:38:58.747Z,99275.32
2022-10-31T05:42:12.725Z,99272.04
2022-10-31T05:45:27.605Z,99277.36
2022-10-31T05:48:41.204Z,99276.66
2022-10-31T05:52:12.158Z,99290.95
2022-10-31T05:55:28.508Z,99282.83
2022-10-31T05:58:45.434Z,99289.28
2022-10-31T06:01:57.308Z,99290.25
2022-10-31T06:05:23.429Z,99290.95
2022-10-31T06:08:35.548Z,99293.61
2022-10-31T06:11:49.155Z,99300.48
2022-10-31T06:15:11.108Z,99300.34
2022-10-31T06:18:23.049Z,99304.45
2022-10-31T06:21:36.903Z,99306.81
2022-10-31T06:24:48.762Z,99307.12
2022-10-31T06:28:02.876Z,99312.74
2022-10-31T06:31:16.735Z,99315.81
2022-10-31T06:34:28.590Z,99317.78
2022-10-31T06:37:40.549Z,99326.51
2022-10-31T06:40:57.160Z,99318.67
2022-10-31T06:44:11.861Z,99321.03
2022-10-31T06:48:14.906Z,99325.94
2022-10-31T06:50:59.732Z,99317.92
2022-10-31T06:54:12.444Z,99322.38
2022-10-31T06:57:24.216Z,99326.95
2022-10-31T07:00:37.669Z,99325.83
2022-10-31T07:03:51.412Z,99343.45
2022-10-31T07:07:03.668Z,99328.25
2022-10-31T07:10:16.481Z,99330.12
2022-10-31T07:13:31.037Z,99335.38
2022-10-31T07:16:44.600Z,99330.50
2022-10-31T07:19:58.344Z,99335.41
2022-10-31T07:23:10.648Z,99337.48
2022-10-31T07:26:22.724Z,99334.36
2022-10-31T07:29:34.597Z,99335.16
2022-10-31T07:32:51.477Z,99333.45
2022-10-31T07:36:01.707Z,99338.16
2022-10-31T07:39:15.313Z,99339.69
2022-10-31T07:42:27.318Z,99326.25
2022-10-31T07:45:39.067Z,99330.36
2022-10-31T07:49:09.797Z,99337.81
2022-10-31T07:52:42.597Z,99331.83
2022-10-31T07:56:15.086Z,99332.37
2022-10-31T07:59:28.294Z,99324.42
2022-10-31T08:02:40.238Z,99329.98
2022-10-31T08:06:01.347Z,99329.34
2022-10-31T08:09:15.133Z,99323.56
2022-10-31T08:12:29.126Z,99333.38
2022-10-31T08:15:43.005Z,99326.44
2022-10-31T08:18:56.620Z,99330.63
2022-10-31T08:22:08.497Z,99330.09
2022-10-31T08:25:20.578Z,99323.22
2022-10-31T08:28:32.719Z,99323.39
2022-10-31T08:31:44.731Z,99324.08
2022-10-31T08:35:15.915Z,99323.23
2022-10-31T08:38:46.809Z,99322.05
2022-10-31T08:41:58.764Z,99324.30
2022-10-31T08:45:11.890Z,99318.24
2022-10-31T08:48:24.537Z,99320.21
2022-10-31T08:51:37.893Z,99310.25
2022-10-31T09:48:18.891Z,99305.20
2022-10-31T09:54:48.746Z,99310.08
2022-10-31T10:19:05.807Z,99304.68
2022-10-31T10:29:00.390Z,99308.23
2022-10-31T11:22:24.947Z,99274.22
2022-10-31T11:25:36.704Z,99273.13
2022-10-31T11:28:48.372Z,99270.28
2022-10-31T11:32:02.668Z,99275.02
2022-10-31T11:35:20.156Z,99271.84
2022-10-31T11:38:37.110Z,99272.57
2022-10-31T11:41:49.239Z,99259.78
2022-10-31T11:45:03.098Z,99263.38
2022-10-31T11:48:26.107Z,99264.37
2022-10-31T11:51:40.686Z,99267.23
2022-10-31T12:51:58.781Z,99233.33
2022-10-31T13:10:36.952Z,99222.29
2022-10-31T13:35:28.760Z,99177.59
2022-10-31T13:38:46.286Z,99217.59
2022-10-31T13:42:03.716Z,99219.05
2022-10-31T13:45:25.652Z,99205.67
2022-10-31T13:48:49.748Z,99214.83
2022-10-31T13:52:19.623Z,99219.41
2022-10-31T13:55:49.983Z,99214.38
2022-10-31T13:59:26.509Z,99221.61
2022-10-31T14:02:41.737Z,99208.90
2022-10-31T14:06:00.449Z,99216.33
2022-10-31T14:09:23.963Z,99210.49
2022-10-31T14:12:42.736Z,99209.81
2022-10-31T14:16:07.431Z,99215.80
2022-10-31T14:19:25.486Z,99170.95
2022-10-31T14:22:42.756Z,99206.17
2022-10-31T14:25:55.421Z,99181.70
2022-10-31T14:29:23.125Z,99206.48
2022-10-31T14:32:36.500Z,99200.83
2022-10-31T14:35:59.579Z,99190.16
2022-10-31T14:39:17.118Z,99205.30
2022-10-31T14:42:51.751Z,99205.02
2022-10-31T14:46:09.575Z,99209.91
2022-10-31T14:49:50.440Z,99209.81
2022-10-31T14:53:08.246Z,99205.93
2022-10-31T14:56:25.010Z,99208.11
2022-10-31T14:59:42.067Z,99204.90
2022-10-31T15:02:58.578Z,99176.70
2022-10-31T15:06:17.485Z,99200.03
2022-10-31T15:09:36.910Z,99212.50
2022-10-31T15:12:49.370Z,99172.73
2022-10-31T15:16:03.185Z,99206.63
2022-10-31T15:19:22.376Z,99201.35
2022-10-31T15:22:38.503Z,99201.42
2022-10-31T15:25:51.798Z,99204.41
2022-10-31T15:29:10.678Z,99209.08
2022-10-31T15:32:29.185Z,99207.46
2022-10-31T15:35:41.629Z,99207.42
2022-10-31T15:38:54.045Z,99208.19
2022-10-31T15:42:06.976Z,99213.89
2022-10-31T15:45:29.646Z,99213.53
2022-10-31T15:48:42.476Z,99219.02
2022-10-31T15:51:54.957Z,99228.67
2022-10-31T15:55:11.378Z,99223.30
2022-10-31T15:58:25.440Z,99223.91
2022-10-31T16:01:40.206Z,99221.32
2022-10-31T16:05:02.117Z,99224.75
2022-10-31T16:08:35.346Z,99229.02
2022-10-31T16:11:48.066Z,99225.39
2022-10-31T16:15:01.950Z,99226.41
2022-10-31T16:18:16.265Z,99233.50
2022-10-31T16:21:36.848Z,99230.48
2022-10-31T16:24:54.250Z,99240.52
2022-10-31T16:31:36.086Z,99237.14
2022-10-31T16:34:50.742Z,99246.88
2022-10-31T16:38:07.047Z,99243.35
2022-10-31T16:41:23.518Z,99249.24
2022-10-31T16:44:39.867Z,99244.62
2022-10-31T16:47:53.657Z,99242.59
2022-10-31T16:51:08.873Z,99244.59
2022-10-31T16:54:24.810Z,99246.77
2022-10-31T16:57:39.166Z,99247.92
2022-10-31T17:00:51.935Z,99255.92
2022-10-31T17:04:04.355Z,99250.40
2022-10-31T17:07:16.762Z,99251.84
2022-10-31T17:10:29.522Z,99255.00
2022-10-31T17:13:43.144Z,99257.92
2022-10-31T17:16:58.250Z,99261.70
2022-10-31T17:20:18.193Z,99259.23
2022-10-31T17:23:33.231Z,99259.28
2022-10-31T17:26:47.229Z,99250.75
2022-10-31T17:29:59.628Z,99256.90
2022-10-31T17:33:12.040Z,99256.80
2022-10-31T17:36:24.305Z,99254.97
2022-10-31T17:39:36.751Z,99259.12
2022-10-31T17:42:51.423Z,99256.00
2022-10-31T17:46:07.010Z,99241.11
2022-10-31T17:49:21.709Z,99257.70
2022-10-31T17:52:34.049Z,99256.00
2022-10-31T17:55:46.227Z,99254.90
2022-10-31T17:58:58.622Z,99253.98
2022-10-31T18:02:11.815Z,99253.00
2022-10-31T18:05:24.559Z,99249.64
2022-10-31T18:08:39.847Z,99256.90
2022-10-31T18:11:52.301Z,99261.75
2022-10-31T18:15:05.239Z,99258.22
2022-10-31T18:18:17.512Z,99261.64
2022-10-31T18:21:30.227Z,99260.03
2022-10-31T18:24:42.496Z,99257.37
2022-10-31T18:27:54.865Z,99260.57
2022-10-31T18:31:08.625Z,99261.88
2022-10-31T18:34:20.928Z,99259.09
2022-10-31T18:37:33.751Z,99256.64
2022-10-31T18:40:45.972Z,99248.80
2022-10-31T18:44:00.321Z,99248.80
2022-10-31T18:47:13.074Z,99246.88
2022-10-31T18:50:25.991Z,99255.31
2022-10-31T18:53:38.685Z,99252.86
2022-10-31T18:56:51.012Z,99243.02
2022-10-31T19:00:03.052Z,99250.63
2022-10-31T19:03:15.527Z,99246.73
2022-10-31T19:06:27.885Z,99250.83
2022-10-31T19:09:41.166Z,99246.47
2022-10-31T19:12:54.010Z,99248.74
2022-10-31T19:16:13.995Z,99253.50
2022-10-31T19:19:27.382Z,99240.05
2022-10-31T19:22:40.094Z,99247.93
2022-10-31T19:25:52.758Z,99223.01
2022-10-31T19:29:05.469Z,99242.91
2022-10-31T19:32:18.301Z,99237.72
2022-10-31T19:35:31.024Z,99233.67
2022-10-31T19:38:45.692Z,99235.48
2022-10-31T19:41:59.829Z,99238.72
2022-10-31T19:45:14.001Z,99245.32
2022-10-31T19:48:30.183Z,99242.11
2022-10-31T19:51:53.061Z,99246.19
2022-10-31T19:55:06.050Z,99242.67
2022-10-31T19:58:18.536Z,99246.30
2022-10-31T20:01:32.081Z,99236.93
2022-10-31T20:04:44.697Z,99224.30
2022-10-31T20:07:56.977Z,99243.08
2022-10-31T20:11:11.127Z,99242.11
2022-10-31T20:14:25.987Z,99239.58
2022-10-31T20:17:38.289Z,99238.34
2022-10-31T20:20:50.935Z,99237.66
2022-10-31T20:24:05.809Z,99230.38
2022-10-31T20:27:18.486Z,99225.88
2022-10-31T20:30:31.231Z,99230.50
2022-10-31T20:33:44.013Z,99229.68
2022-10-31T20:36:56.363Z,99225.88
2022-10-31T20:40:09.022Z,99228.98
2022-10-31T20:43:21.356Z,99231.91
2022-10-31T20:46:34.629Z,99200.91
2022-10-31T20:49:46.940Z,99227.84
2022-10-31T20:52:59.703Z,99234.16
2022-10-31T20:56:16.039Z,99230.24
2022-10-31T20:59:28.222Z,99230.09
2022-10-31T21:02:41.939Z,99233.67
2022-10-31T21:06:02.827Z,99230.86
2022-10-31T21:09:15.537Z,99225.83
2022-10-31T21:12:27.746Z,99225.13
2022-10-31T21:15:40.553Z,99223.72
2022-10-31T21:18:54.590Z,99222.16
2022-10-31T21:22:06.712Z,99222.39
2022-10-31T21:25:19.060Z,99219.56
2022-10-31T21:28:31.442Z,99220.41
2022-10-31T21:31:45.556Z,99218.69
2022-10-31T21:34:57.803Z,99212.27
2022-10-31T21:38:10.228Z,99218.45
2022-10-31T21:41:24.425Z,99208.08
2022-10-31T21:44:36.776Z,99207.91
2022-10-31T21:47:49.065Z,99211.14
2022-10-31T21:51:01.616Z,99198.11
2022-10-31T21:54:34.560Z,99204.52
2022-10-31T21:57:47.410Z,99205.12
2022-10-31T22:00:59.918Z,99192.08
2022-10-31T22:04:12.764Z,99193.33
2022-10-31T22:07:25.081Z,99171.48
2022-10-31T22:10:37.284Z,99194.42
2022-10-31T22:13:52.109Z,99191.77
2022-10-31T22:17:04.322Z,99196.52
2022-10-31T22:20:17.997Z,99166.34
2022-10-31T22:23:31.393Z,99186.35
2022-10-31T22:26:44.015Z,99188.02
2022-10-31T22:29:56.800Z,99180.15
2022-10-31T22:33:09.176Z,99177.03
2022-10-31T22:36:25.373Z,99179.83
2022-10-31T22:39:37.761Z,99174.27
2022-10-31T22:42:49.852Z,99171.91
2022-10-31T22:46:07.017Z,99174.45
2022-10-31T22:49:18.940Z,99170.95
2022-10-31T22:52:30.920Z,99169.25
2022-10-31T22:55:43.936Z,99167.58
2022-10-31T22:58:56.692Z,99162.80
2022-10-31T23:02:11.555Z,99166.13
2022-10-31T23:05:23.351Z,99164.13
2022-10-31T23:08:38.642Z,99154.42
2022-10-31T23:11:51.317Z,99143.83
2022-10-31T23:15:03.578Z,99155.17
2022-10-31T23:18:30.145Z,99152.24
2022-10-31T23:21:50.048Z,99148.06
2022-10-31T23:25:02.730Z,99151.47
2022-10-31T23:28:14.848Z,99148.95
2022-10-31T23:31:26.887Z,99141.13
2022-10-31T23:34:38.967Z,99134.06
2022-10-31T23:37:50.961Z,99132.42
2022-10-31T23:41:03.364Z,99135.34
2022-10-31T23:44:15.374Z,99129.33
2022-10-31T23:47:28.400Z,99125.99
2022-10-31T23:50:40.713Z,99127.11
2022-10-31T23:53:53.924Z,99118.33
2022-10-31T23:57:06.719Z,99119.23
